sim
Sign-in with your pilot id or email,
or register
Callsign
Passwort

Schedule Details

Flight Number: OEO1999
Departure: Munster Osnabruck International -?Airport (EDDG) at 06:35
Arrival: Munich Airport (EDDM) at 07:55

Weather Information
Getting current METAR information for EDDG 190220Z 07004KT 360V110 CAVOK 11/04 Q1021 NOSIG
Getting current METAR information for EDDM 190220Z VRB02KT CAVOK 05/03 Q1021 NOSIG

Schedule Frequency

Route Map